createdAt,value
2022-10-01T00:02:01.931Z,10.27
2022-10-01T00:04:29.014Z,11.82
2022-10-01T00:06:59.309Z,10.48
2022-10-01T00:09:26.562Z,9.60
2022-10-01T00:11:53.531Z,10.20
2022-10-01T00:14:20.197Z,10.48
2022-10-01T00:16:46.931Z,9.90
2022-10-01T00:19:17.417Z,9.88
2022-10-01T00:21:44.137Z,9.68
2022-10-01T00:24:12.805Z,10.35
2022-10-01T00:26:39.566Z,9.90
2022-10-01T00:29:11.499Z,10.32
2022-10-01T00:31:38.898Z,10.68
2022-10-01T00:34:06.560Z,11.43
2022-10-01T00:36:34.419Z,8.43
2022-10-01T00:39:01.987Z,10.82
2022-10-01T00:41:31.709Z,10.30
2022-10-01T00:44:01.917Z,9.45
2022-10-01T00:46:34.006Z,9.80
2022-10-01T00:49:07.079Z,9.93
2022-10-01T00:51:42.332Z,10.70
2022-10-01T00:54:13.364Z,10.52
2022-10-01T00:56:42.269Z,10.68
2022-10-01T00:59:10.399Z,10.77
2022-10-01T01:01:38.967Z,10.90
2022-10-01T01:04:16.567Z,9.95
2022-10-01T01:07:04.473Z,11.98
2022-10-01T01:09:43.704Z,8.82
2022-10-01T01:12:48.382Z,10.27
2022-10-01T01:15:24.070Z,8.73
2022-10-01T01:18:20.192Z,9.20
2022-10-01T01:21:05.159Z,10.13
2022-10-01T01:23:42.259Z,9.82
2022-10-01T01:26:31.991Z,10.57
2022-10-01T01:29:04.768Z,9.30
2022-10-01T01:31:39.798Z,8.88
2022-10-01T01:36:45.435Z,8.60
2022-10-01T01:39:15.263Z,9.15
2022-10-01T01:41:50.275Z,9.10
2022-10-01T01:46:49.441Z,8.65
2022-10-01T01:49:20.234Z,8.98
2022-10-01T01:52:03.537Z,12.48
2022-10-01T01:54:31.515Z,9.45
2022-10-01T01:56:59.094Z,10.45
2022-10-01T01:59:27.298Z,9.35
2022-10-01T02:01:54.259Z,8.85
2022-10-01T02:04:25.793Z,9.02
2022-10-01T02:07:06.921Z,10.50
2022-10-01T02:09:39.855Z,11.55
2022-10-01T02:12:30.361Z,9.43
2022-10-01T02:15:02.456Z,9.70
2022-10-01T02:17:38.748Z,10.82
2022-10-01T02:20:18.630Z,10.10
2022-10-01T02:22:59.399Z,9.15
2022-10-01T02:25:31.466Z,8.90
2022-10-01T02:28:01.627Z,9.32
2022-10-01T02:30:32.274Z,10.43
2022-10-01T02:33:01.102Z,10.75
2022-10-01T02:35:32.001Z,12.10
2022-10-01T02:38:01.964Z,11.27
2022-10-01T02:40:31.687Z,11.05
2022-10-01T02:43:09.523Z,9.35
2022-10-01T02:45:40.431Z,9.32
2022-10-01T02:48:11.245Z,10.30
2022-10-01T02:50:49.453Z,11.77
2022-10-01T02:53:37.170Z,11.10
2022-10-01T02:56:05.791Z,13.68
2022-10-01T02:58:32.497Z,11.27
2022-10-01T03:00:59.202Z,11.13
2022-10-01T03:03:26.219Z,9.20
2022-10-01T03:05:52.940Z,9.63
2022-10-01T03:08:20.048Z,14.02
2022-10-01T03:10:47.068Z,10.05
2022-10-01T03:13:13.995Z,9.88
2022-10-01T03:15:40.709Z,10.85
2022-10-01T03:18:07.397Z,11.30
2022-10-01T03:20:33.991Z,12.13
2022-10-01T03:23:00.683Z,10.80
2022-10-01T03:25:27.373Z,10.77
2022-10-01T03:27:54.214Z,11.50
2022-10-01T03:30:22.135Z,10.50
2022-10-01T03:32:48.732Z,11.65
2022-10-01T03:35:15.458Z,10.88
2022-10-01T03:37:42.051Z,13.00
2022-10-01T03:40:09.108Z,12.98
2022-10-01T03:42:35.785Z,9.90
2022-10-01T03:45:02.512Z,10.95
2022-10-01T03:47:29.103Z,10.52
2022-10-01T03:49:55.747Z,10.57
2022-10-01T03:52:22.823Z,11.77
2022-10-01T03:54:49.430Z,11.20
2022-10-01T03:57:16.181Z,9.77
2022-10-01T03:59:42.946Z,11.45
2022-10-01T04:02:09.777Z,10.35
2022-10-01T04:04:36.540Z,12.38
2022-10-01T04:07:03.181Z,10.10
2022-10-01T04:09:29.904Z,10.25
2022-10-01T04:11:56.533Z,11.90
2022-10-01T04:14:23.198Z,10.75
2022-10-01T04:16:52.431Z,9.85
2022-10-01T04:19:20.270Z,11.27
2022-10-01T04:21:47.002Z,11.70
2022-10-01T04:24:13.641Z,12.02
2022-10-01T04:26:40.319Z,12.55
2022-10-01T04:29:07.158Z,12.80
2022-10-01T04:31:35.596Z,13.80
2022-10-01T04:34:03.442Z,15.32
2022-10-01T04:36:30.123Z,15.15
2022-10-01T04:39:01.689Z,15.95
2022-10-01T04:41:31.122Z,13.80
2022-10-01T04:44:00.024Z,14.73
2022-10-01T04:46:30.210Z,15.50
2022-10-01T04:48:57.226Z,14.48
2022-10-01T04:51:24.383Z,15.07
2022-10-01T04:53:51.110Z,15.27
2022-10-01T04:56:17.704Z,16.85
2022-10-01T04:58:44.470Z,17.40
2022-10-01T05:01:11.160Z,16.67
2022-10-01T05:03:37.807Z,18.50
2022-10-01T05:06:04.605Z,18.58
2022-10-01T05:08:31.284Z,17.75
2022-10-01T05:10:59.833Z,16.83
2022-10-01T05:13:30.169Z,17.52
2022-10-01T05:15:57.742Z,18.42
2022-10-01T05:18:25.170Z,16.95
2022-10-01T05:20:52.321Z,16.70
2022-10-01T05:23:18.966Z,15.32
2022-10-01T05:25:47.032Z,15.40
2022-10-01T05:28:17.158Z,12.90
2022-10-01T05:30:47.863Z,14.70
2022-10-01T05:33:14.565Z,13.98
2022-10-01T05:35:41.409Z,12.60
2022-10-01T05:38:08.205Z,15.25
2022-10-01T05:40:34.890Z,14.50
2022-10-01T05:43:03.143Z,14.32
2022-10-01T05:45:31.488Z,17.48
2022-10-01T05:48:02.288Z,16.73
2022-10-01T05:50:31.763Z,16.65
2022-10-01T05:52:59.369Z,14.60
2022-10-01T05:55:26.118Z,15.38
2022-10-01T05:57:57.387Z,17.25
2022-10-01T06:00:27.650Z,13.85
2022-10-01T06:02:55.291Z,13.50
2022-10-01T06:05:22.753Z,9.50
2022-10-01T06:07:50.328Z,10.68
2022-10-01T06:10:17.701Z,10.32
2022-10-01T06:12:44.637Z,8.88
2022-10-01T06:15:14.297Z,10.50
2022-10-01T06:17:45.239Z,8.25
2022-10-01T06:20:14.076Z,8.90
2022-10-01T06:22:42.989Z,9.18
2022-10-01T06:25:15.251Z,8.10
2022-10-01T06:27:42.637Z,8.45
2022-10-01T06:30:10.419Z,8.00
2022-10-01T06:32:37.749Z,9.85
2022-10-01T06:35:04.677Z,8.55
2022-10-01T06:37:31.368Z,9.52
2022-10-01T06:39:57.989Z,8.98
2022-10-01T06:42:25.022Z,10.13
2022-10-01T06:44:51.630Z,10.40
2022-10-01T06:47:18.300Z,10.65
2022-10-01T06:49:47.639Z,10.90
2022-10-01T06:52:33.129Z,9.57
2022-10-01T06:57:29.172Z,10.70
2022-10-01T06:59:55.934Z,10.13
2022-10-01T07:02:32.465Z,9.45
2022-10-01T07:04:59.431Z,12.32
2022-10-01T07:07:33.808Z,12.18
2022-10-01T07:10:00.668Z,12.55
2022-10-01T07:12:27.698Z,8.63
2022-10-01T07:14:54.745Z,9.15
2022-10-01T07:17:22.810Z,10.77
2022-10-01T07:19:49.583Z,8.05
2022-10-01T07:22:18.144Z,8.65
2022-10-01T07:24:45.908Z,8.00
2022-10-01T07:27:14.398Z,6.65
2022-10-01T07:29:41.974Z,6.05
2022-10-01T07:32:10.580Z,5.93
2022-10-01T07:34:40.359Z,5.38
2022-10-01T07:37:07.593Z,4.82
2022-10-01T07:39:34.643Z,5.10
2022-10-01T07:42:01.393Z,5.63
2022-10-01T07:44:29.489Z,7.10
2022-10-01T07:46:57.001Z,4.35
2022-10-01T07:49:25.239Z,4.43
2022-10-01T07:51:53.372Z,4.55
2022-10-01T07:54:21.842Z,5.22
2022-10-01T07:56:49.660Z,5.13
2022-10-01T07:59:16.811Z,3.75
2022-10-01T08:01:43.515Z,4.70
2022-10-01T08:04:28.693Z,4.85
2022-10-01T08:09:21.911Z,6.75
2022-10-01T08:11:48.935Z,5.72
2022-10-01T08:14:17.922Z,2.92
2022-10-01T08:16:49.214Z,3.78
2022-10-01T08:19:16.483Z,3.85
2022-10-01T08:21:43.178Z,6.88
2022-10-01T08:24:09.968Z,3.00
2022-10-01T08:26:36.754Z,3.90
2022-10-01T08:29:03.585Z,4.97
2022-10-01T08:31:30.620Z,4.40
2022-10-01T08:33:58.055Z,6.38
2022-10-01T08:36:24.845Z,6.30
2022-10-01T08:38:51.544Z,6.65
2022-10-01T08:41:44.881Z,7.15
2022-10-01T08:44:20.207Z,8.02
2022-10-01T08:46:49.543Z,6.53
2022-10-01T08:49:21.024Z,4.55
2022-10-01T08:52:07.219Z,7.15
2022-10-01T08:54:46.575Z,4.43
2022-10-01T08:57:18.556Z,8.32
2022-10-01T08:59:49.018Z,5.95
2022-10-01T09:02:26.115Z,4.93
2022-10-01T09:05:01.544Z,8.82
2022-10-01T09:08:06.180Z,4.82
2022-10-01T09:10:44.708Z,4.75
2022-10-01T09:13:30.076Z,5.85
2022-10-01T09:15:56.841Z,4.47
2022-10-01T09:18:48.220Z,6.63
2022-10-01T09:21:22.553Z,5.22
2022-10-01T09:24:03.383Z,5.00
2022-10-01T09:26:31.027Z,4.43
2022-10-01T09:29:01.263Z,6.95
2022-10-01T09:31:40.983Z,3.53
2022-10-01T09:34:26.873Z,4.18
2022-10-01T09:37:21.635Z,5.95
2022-10-01T09:40:19.351Z,6.43
2022-10-01T09:42:47.659Z,4.63
2022-10-01T09:45:15.961Z,3.55
2022-10-01T09:47:48.618Z,4.10
2022-10-01T09:50:19.857Z,6.03
2022-10-01T09:52:50.077Z,4.10
2022-10-01T09:55:51.857Z,4.25
2022-10-01T09:58:23.192Z,7.93
2022-10-01T10:00:53.691Z,4.53
2022-10-01T10:03:30.459Z,11.43
2022-10-01T10:05:59.942Z,4.10
2022-10-01T10:08:47.147Z,4.68
2022-10-01T10:11:22.908Z,5.65
2022-10-01T10:13:52.998Z,3.78
2022-10-01T10:16:26.427Z,5.03
2022-10-01T10:19:02.490Z,5.13
2022-10-01T10:21:37.950Z,7.25
2022-10-01T10:24:07.405Z,4.72
2022-10-01T10:26:39.938Z,4.95
2022-10-01T10:29:24.413Z,5.30
2022-10-01T10:31:51.673Z,9.50
2022-10-01T10:34:24.434Z,33.67
2022-10-01T10:36:57.878Z,7.43
2022-10-01T10:39:29.584Z,5.13
2022-10-01T10:41:59.713Z,11.07
2022-10-01T10:44:32.031Z,5.20
2022-10-01T10:47:05.408Z,14.07
2022-10-01T10:49:40.965Z,18.58
2022-10-01T10:52:32.495Z,7.28
2022-10-01T10:55:00.994Z,7.40
2022-10-01T10:57:29.132Z,13.30
2022-10-01T11:00:00.137Z,5.55
2022-10-01T11:02:32.367Z,10.13
2022-10-01T11:05:12.010Z,4.63
2022-10-01T11:07:43.091Z,12.85
2022-10-01T11:10:43.131Z,5.72
2022-10-01T11:13:12.878Z,8.35
2022-10-01T11:15:56.298Z,4.38
2022-10-01T11:18:25.970Z,4.75
2022-10-01T11:21:11.024Z,4.85
2022-10-01T11:23:43.888Z,2.65
2022-10-01T11:26:10.830Z,2.35
2022-10-01T11:29:02.299Z,2.55
2022-10-01T11:31:35.190Z,5.03
2022-10-01T11:34:27.762Z,6.38
2022-10-01T11:37:01.281Z,2.90
2022-10-01T11:39:32.187Z,2.78
2022-10-01T11:42:05.693Z,3.22
2022-10-01T11:44:53.817Z,3.42
2022-10-01T11:47:23.368Z,3.03
2022-10-01T11:49:59.901Z,2.63
2022-10-01T11:52:38.979Z,2.42
2022-10-01T11:55:34.901Z,1.90
2022-10-01T11:58:32.443Z,7.15
2022-10-01T12:01:04.129Z,4.57
2022-10-01T12:03:42.103Z,3.03
2022-10-01T12:06:14.961Z,3.63
2022-10-01T12:08:48.444Z,3.25
2022-10-01T12:11:24.394Z,2.95
2022-10-01T12:14:00.706Z,2.65
2022-10-01T12:16:43.099Z,3.28
2022-10-01T12:19:34.405Z,3.38
2022-10-01T12:22:13.714Z,2.83
2022-10-01T12:24:45.380Z,2.58
2022-10-01T12:27:33.566Z,4.93
2022-10-01T12:30:09.900Z,2.58
2022-10-01T12:32:49.735Z,1.85
2022-10-01T12:35:35.794Z,3.03
2022-10-01T12:38:41.962Z,2.42
2022-10-01T12:41:27.189Z,3.88
2022-10-01T12:44:19.354Z,1.75
2022-10-01T12:47:01.208Z,3.67
2022-10-01T12:49:36.914Z,3.85
2022-10-01T12:52:35.485Z,3.58
2022-10-01T12:55:30.950Z,5.68
2022-10-01T12:58:11.109Z,2.60
2022-10-01T13:00:49.630Z,3.53
2022-10-01T13:03:47.456Z,0.82
2022-10-01T13:06:42.179Z,4.65
2022-10-01T13:09:29.775Z,4.90
2022-10-01T13:11:59.428Z,8.73
2022-10-01T13:14:26.307Z,6.82
2022-10-01T13:17:02.973Z,6.70
2022-10-01T13:19:51.238Z,4.80
2022-10-01T13:22:37.132Z,6.40
2022-10-01T13:25:18.951Z,3.40
2022-10-01T13:27:59.657Z,4.45
2022-10-01T13:30:33.514Z,4.95
2022-10-01T13:33:01.302Z,5.93
2022-10-01T13:35:31.580Z,3.92
2022-10-01T13:37:59.700Z,5.28
2022-10-01T13:40:34.886Z,3.35
2022-10-01T13:43:24.495Z,3.78
2022-10-01T13:45:53.646Z,4.80
2022-10-01T13:48:23.751Z,4.40
2022-10-01T13:50:58.057Z,3.15
2022-10-01T13:53:27.043Z,4.20
2022-10-01T13:55:54.727Z,6.88
2022-10-01T13:58:30.099Z,13.80
2022-10-01T14:01:00.167Z,15.65
2022-10-01T14:03:50.864Z,12.93
2022-10-01T14:06:24.789Z,12.50
2022-10-01T14:09:00.582Z,8.90
2022-10-01T14:11:49.455Z,5.00
2022-10-01T14:15:14.091Z,6.43
2022-10-01T14:17:43.206Z,7.05
2022-10-01T14:20:18.004Z,6.72
2022-10-01T14:25:32.196Z,8.75
2022-10-01T14:28:10.213Z,10.50
2022-10-01T14:30:48.994Z,5.57
2022-10-01T14:33:34.259Z,8.15
2022-10-01T14:38:44.629Z,6.03
2022-10-01T14:41:20.269Z,7.22
2022-10-01T14:43:47.208Z,7.10
2022-10-01T14:46:17.077Z,6.85
2022-10-01T14:48:44.619Z,5.03
2022-10-01T14:51:31.112Z,10.23
2022-10-01T14:54:00.408Z,5.15
2022-10-01T14:56:28.570Z,4.30
2022-10-01T14:59:03.012Z,8.15
2022-10-01T15:01:29.684Z,10.02
2022-10-01T15:03:56.540Z,5.57
2022-10-01T15:06:28.067Z,8.13
2022-10-01T15:09:02.590Z,8.38
2022-10-01T15:11:31.833Z,5.75
2022-10-01T15:14:04.996Z,6.55
2022-10-01T15:16:33.795Z,8.70
2022-10-01T15:19:03.938Z,9.02
2022-10-01T15:21:38.052Z,10.75
2022-10-01T15:24:08.189Z,9.23
2022-10-01T15:26:35.164Z,9.10
2022-10-01T15:29:13.622Z,9.80
2022-10-01T15:31:41.454Z,12.07
2022-10-01T15:34:13.050Z,10.30
2022-10-01T15:36:41.395Z,10.35
2022-10-01T15:39:39.567Z,13.68
2022-10-01T15:42:28.223Z,11.93
2022-10-01T15:45:07.209Z,9.77
2022-10-01T15:47:50.256Z,9.57
2022-10-01T15:50:20.895Z,9.98
2022-10-01T15:53:11.844Z,7.65
2022-10-01T15:55:41.764Z,11.18
2022-10-01T15:58:11.753Z,11.27
2022-10-01T16:00:38.360Z,12.60
2022-10-01T16:03:05.088Z,9.70
2022-10-01T16:05:45.971Z,11.27
2022-10-01T16:08:21.438Z,10.95
2022-10-01T16:11:09.874Z,10.88
2022-10-01T16:13:39.418Z,7.65
2022-10-01T16:16:29.170Z,12.15
2022-10-01T16:19:20.622Z,13.65
2022-10-01T16:22:26.111Z,37.08
2022-10-01T16:24:54.794Z,23.55
2022-10-01T16:27:35.674Z,25.38
2022-10-01T16:30:32.425Z,23.80
2022-10-01T16:33:02.485Z,20.80
2022-10-01T16:35:35.839Z,19.10
2022-10-01T16:38:06.762Z,11.85
2022-10-01T16:40:39.167Z,19.73
2022-10-01T16:43:10.406Z,15.73
2022-10-01T16:45:38.908Z,12.15
2022-10-01T16:48:14.044Z,12.60
2022-10-01T16:50:41.625Z,13.10
2022-10-01T16:53:26.836Z,11.30
2022-10-01T16:55:55.987Z,10.30
2022-10-01T16:58:23.082Z,13.52
2022-10-01T17:00:49.829Z,12.48
2022-10-01T17:03:19.782Z,10.25
2022-10-01T17:05:47.001Z,11.75
2022-10-01T17:08:15.211Z,11.18
2022-10-01T17:10:53.780Z,13.65
2022-10-01T17:13:20.416Z,13.50
2022-10-01T17:15:48.532Z,16.55
2022-10-01T17:18:15.224Z,13.10
2022-10-01T17:20:42.120Z,14.30
2022-10-01T17:23:11.638Z,17.33
2022-10-01T17:25:39.572Z,14.82
2022-10-01T17:28:11.637Z,12.90
2022-10-01T17:30:43.333Z,14.68
2022-10-01T17:33:11.728Z,15.55
2022-10-01T17:35:43.459Z,15.73
2022-10-01T17:38:11.267Z,13.48
2022-10-01T17:40:42.122Z,17.35
2022-10-01T17:43:14.541Z,11.75
2022-10-01T17:45:42.158Z,14.82
2022-10-01T17:48:09.725Z,11.52
2022-10-01T17:50:43.799Z,11.45
2022-10-01T17:53:14.984Z,15.30
2022-10-01T17:55:42.582Z,13.32
2022-10-01T17:58:10.327Z,19.02
2022-10-01T18:00:37.378Z,14.40
2022-10-01T18:03:04.233Z,15.25
2022-10-01T18:05:30.973Z,16.58
2022-10-01T18:07:57.646Z,18.35
2022-10-01T18:10:24.412Z,17.52
2022-10-01T18:12:51.170Z,11.52
2022-10-01T18:15:20.797Z,11.25
2022-10-01T18:17:52.130Z,13.43
2022-10-01T18:20:22.779Z,13.30
2022-10-01T18:22:50.145Z,14.32
2022-10-01T18:25:19.453Z,14.32
2022-10-01T18:27:50.229Z,12.18
2022-10-01T18:30:17.887Z,9.50
2022-10-01T18:32:50.864Z,10.52
2022-10-01T18:35:28.378Z,11.68
2022-10-01T18:37:58.443Z,12.10
2022-10-01T18:40:34.295Z,9.95
2022-10-01T18:43:06.737Z,11.07
2022-10-01T18:45:42.848Z,12.65
2022-10-01T18:48:40.525Z,11.82
2022-10-01T18:51:24.529Z,11.38
2022-10-01T18:53:58.467Z,14.63
2022-10-01T18:56:33.506Z,15.40
2022-10-01T18:59:15.514Z,12.43
2022-10-01T19:02:12.617Z,14.45
2022-10-01T19:04:53.639Z,24.92
2022-10-01T19:07:41.781Z,18.00
2022-10-01T19:10:08.402Z,16.10
2022-10-01T19:12:35.052Z,17.70
2022-10-01T19:15:22.301Z,16.65
2022-10-01T19:18:24.349Z,16.75
2022-10-01T19:21:23.575Z,21.92
2022-10-01T19:23:53.244Z,16.73
2022-10-01T19:26:26.689Z,15.75
2022-10-01T19:29:35.405Z,21.27
2022-10-01T19:32:07.481Z,21.65
2022-10-01T19:34:45.807Z,19.55
2022-10-01T19:37:37.143Z,21.58
2022-10-01T19:40:36.206Z,19.85
2022-10-01T19:43:26.377Z,20.40
2022-10-01T19:46:05.184Z,23.80
2022-10-01T19:48:47.982Z,22.75
2022-10-01T19:51:18.937Z,24.10
2022-10-01T19:54:01.119Z,18.75
2022-10-01T19:56:34.509Z,18.27
2022-10-01T19:59:07.951Z,17.08
2022-10-01T20:01:39.231Z,14.60
2022-10-01T20:04:18.402Z,12.82
2022-10-01T20:06:47.006Z,14.15
2022-10-01T20:09:20.668Z,13.02
2022-10-01T20:12:29.359Z,17.38
2022-10-01T20:15:12.641Z,13.60
2022-10-01T20:17:42.307Z,13.60
2022-10-01T20:20:24.351Z,12.13
2022-10-01T20:23:11.127Z,15.20
2022-10-01T20:25:53.116Z,12.32
2022-10-01T20:28:47.156Z,13.82
2022-10-01T20:31:28.137Z,13.60
2022-10-01T20:34:17.898Z,12.60
2022-10-01T20:36:56.311Z,12.13
2022-10-01T20:39:30.543Z,14.52
2022-10-01T20:41:58.416Z,12.23
2022-10-01T20:44:28.494Z,14.68
2022-10-01T20:47:02.222Z,13.95
2022-10-01T20:49:43.593Z,11.95
2022-10-01T20:52:29.073Z,12.02
2022-10-01T20:57:54.734Z,12.20
2022-10-01T21:00:23.808Z,12.07
2022-10-01T21:03:08.578Z,13.45
2022-10-01T21:05:41.610Z,11.63
2022-10-01T21:08:38.161Z,14.85
2022-10-01T21:11:11.602Z,14.18
2022-10-01T21:13:50.458Z,15.27
2022-10-01T21:16:26.406Z,13.55
2022-10-01T21:19:17.409Z,14.02
2022-10-01T21:21:44.051Z,12.27
2022-10-01T21:24:38.873Z,14.23
2022-10-01T21:27:47.658Z,12.35
2022-10-01T21:30:16.094Z,10.52
2022-10-01T21:33:08.340Z,11.65
2022-10-01T21:36:09.124Z,12.25
2022-10-01T21:38:50.284Z,11.55
2022-10-01T21:41:43.716Z,10.20
2022-10-01T21:44:45.437Z,11.05
2022-10-01T21:47:21.292Z,13.00
2022-10-01T21:50:15.677Z,11.48
2022-10-01T21:53:06.765Z,11.25
2022-10-01T21:55:58.852Z,9.38
2022-10-01T21:58:47.485Z,11.48
2022-10-01T22:01:37.944Z,11.07
2022-10-01T22:04:20.192Z,11.68
2022-10-01T22:06:53.341Z,13.80
2022-10-01T22:09:32.433Z,11.98
2022-10-01T22:12:00.921Z,10.45
2022-10-01T22:14:28.754Z,12.25
2022-10-01T22:17:11.726Z,13.15
2022-10-01T22:19:43.159Z,9.45
2022-10-01T22:22:13.099Z,11.48
2022-10-01T22:24:47.883Z,11.18
2022-10-01T22:27:37.132Z,10.70
2022-10-01T22:30:18.184Z,12.00
2022-10-01T22:32:55.174Z,10.90
2022-10-01T22:35:31.476Z,10.60
2022-10-01T22:37:58.122Z,10.75
2022-10-01T22:40:31.504Z,9.88
2022-10-01T22:43:05.363Z,12.82
2022-10-01T22:46:13.713Z,10.57
2022-10-01T22:48:49.120Z,11.27
2022-10-01T22:51:27.366Z,18.27
2022-10-01T22:54:03.245Z,11.48
2022-10-01T22:56:46.612Z,11.25
2022-10-01T22:59:43.953Z,13.23
2022-10-01T23:02:48.747Z,11.60
2022-10-01T23:05:41.062Z,12.60
2022-10-01T23:08:35.049Z,13.05
2022-10-01T23:11:07.520Z,12.25
2022-10-01T23:14:04.747Z,11.40
2022-10-01T23:16:57.363Z,12.18
2022-10-01T23:19:38.879Z,10.30
2022-10-01T23:22:25.374Z,9.18
2022-10-01T23:25:15.552Z,7.05
2022-10-01T23:28:00.425Z,9.00
2022-10-01T23:30:44.324Z,5.05
2022-10-01T23:33:10.973Z,8.93
2022-10-01T23:35:58.251Z,8.75
2022-10-01T23:38:31.087Z,7.70
2022-10-01T23:41:04.706Z,7.78
2022-10-01T23:43:36.996Z,9.45
2022-10-01T23:46:13.370Z,9.98
2022-10-01T23:48:50.958Z,9.50
2022-10-01T23:51:43.464Z,8.68
2022-10-01T23:54:31.298Z,8.85
2022-10-01T23:57:07.652Z,8.88
2022-10-01T23:59:41.341Z,7.82
